sensor_id;sensor_type;location;lat;lon;timestamp;P1;durP1;ratioP1;P2;durP2;ratioP2
974;SDS011;6115;49.296;10.602;2023-04-25T00:02:32;5.60;;;4.43;;
974;SDS011;6115;49.296;10.602;2023-04-25T00:07:34;5.00;;;3.70;;
974;SDS011;6115;49.296;10.602;2023-04-25T00:12:35;6.30;;;5.47;;
974;SDS011;6115;49.296;10.602;2023-04-25T00:17:36;5.93;;;5.07;;
974;SDS011;6115;49.296;10.602;2023-04-25T00:22:38;6.03;;;4.43;;
974;SDS011;6115;49.296;10.602;2023-04-25T00:27:38;7.77;;;5.07;;
974;SDS011;6115;49.296;10.602;2023-04-25T00:32:39;4.70;;;4.20;;
974;SDS011;6115;49.296;10.602;2023-04-25T00:37:40;6.57;;;4.97;;
974;SDS011;6115;49.296;10.602;2023-04-25T00:42:40;7.20;;;4.80;;
974;SDS011;6115;49.296;10.602;2023-04-25T00:47:42;7.50;;;5.20;;
974;SDS011;6115;49.296;10.602;2023-04-25T00:52:43;5.10;;;4.27;;
974;SDS011;6115;49.296;10.602;2023-04-25T00:57:44;5.30;;;4.20;;
974;SDS011;6115;49.296;10.602;2023-04-25T01:02:45;5.00;;;4.17;;
974;SDS011;6115;49.296;10.602;2023-04-25T01:07:46;6.17;;;5.37;;
974;SDS011;6115;49.296;10.602;2023-04-25T01:12:47;5.93;;;5.33;;
974;SDS011;6115;49.296;10.602;2023-04-25T01:17:47;8.57;;;6.20;;
974;SDS011;6115;49.296;10.602;2023-04-25T01:22:50;6.00;;;5.10;;
974;SDS011;6115;49.296;10.602;2023-04-25T01:27:51;6.90;;;5.53;;
974;SDS011;6115;49.296;10.602;2023-04-25T01:32:56;7.13;;;5.33;;
974;SDS011;6115;49.296;10.602;2023-04-25T01:37:57;7.40;;;5.43;;
974;SDS011;6115;49.296;10.602;2023-04-25T01:42:57;7.03;;;5.00;;
974;SDS011;6115;49.296;10.602;2023-04-25T01:47:59;6.60;;;6.00;;
974;SDS011;6115;49.296;10.602;2023-04-25T01:53:00;6.60;;;5.90;;
974;SDS011;6115;49.296;10.602;2023-04-25T01:58:04;7.63;;;6.00;;
974;SDS011;6115;49.296;10.602;2023-04-25T02:03:09;9.20;;;6.60;;
974;SDS011;6115;49.296;10.602;2023-04-25T02:08:10;9.50;;;6.23;;
974;SDS011;6115;49.296;10.602;2023-04-25T02:13:10;8.33;;;5.97;;
974;SDS011;6115;49.296;10.602;2023-04-25T02:18:11;7.27;;;5.93;;
974;SDS011;6115;49.296;10.602;2023-04-25T02:23:11;6.57;;;5.80;;
974;SDS011;6115;49.296;10.602;2023-04-25T02:28:12;7.37;;;5.90;;
974;SDS011;6115;49.296;10.602;2023-04-25T02:33:12;8.90;;;5.80;;
974;SDS011;6115;49.296;10.602;2023-04-25T02:38:13;6.80;;;5.60;;
974;SDS011;6115;49.296;10.602;2023-04-25T02:43:13;8.10;;;6.37;;
974;SDS011;6115;49.296;10.602;2023-04-25T02:48:16;9.90;;;6.07;;
974;SDS011;6115;49.296;10.602;2023-04-25T02:53:16;7.83;;;6.03;;
974;SDS011;6115;49.296;10.602;2023-04-25T02:58:17;7.97;;;6.40;;
974;SDS011;6115;49.296;10.602;2023-04-25T03:03:17;6.83;;;5.70;;
974;SDS011;6115;49.296;10.602;2023-04-25T03:08:21;7.70;;;5.53;;
974;SDS011;6115;49.296;10.602;2023-04-25T03:13:22;8.07;;;5.93;;
974;SDS011;6115;49.296;10.602;2023-04-25T03:18:23;8.20;;;6.27;;
974;SDS011;6115;49.296;10.602;2023-04-25T03:23:23;9.90;;;6.13;;
974;SDS011;6115;49.296;10.602;2023-04-25T03:28:24;7.03;;;5.97;;
974;SDS011;6115;49.296;10.602;2023-04-25T03:33:25;8.60;;;5.90;;
974;SDS011;6115;49.296;10.602;2023-04-25T03:38:25;7.10;;;6.23;;
974;SDS011;6115;49.296;10.602;2023-04-25T03:43:26;8.47;;;6.40;;
974;SDS011;6115;49.296;10.602;2023-04-25T03:48:27;8.57;;;6.60;;
974;SDS011;6115;49.296;10.602;2023-04-25T03:53:27;8.87;;;6.33;;
974;SDS011;6115;49.296;10.602;2023-04-25T03:58:28;8.27;;;6.60;;
974;SDS011;6115;49.296;10.602;2023-04-25T04:03:28;8.43;;;7.17;;
974;SDS011;6115;49.296;10.602;2023-04-25T04:08:29;8.50;;;7.13;;
974;SDS011;6115;49.296;10.602;2023-04-25T04:13:30;10.83;;;7.50;;
974;SDS011;6115;49.296;10.602;2023-04-25T04:18:30;10.53;;;6.80;;
974;SDS011;6115;49.296;10.602;2023-04-25T04:23:33;7.57;;;5.33;;
974;SDS011;6115;49.296;10.602;2023-04-25T04:28:33;10.50;;;6.80;;
974;SDS011;6115;49.296;10.602;2023-04-25T04:33:35;8.93;;;7.47;;
974;SDS011;6115;49.296;10.602;2023-04-25T04:38:36;9.63;;;6.60;;
974;SDS011;6115;49.296;10.602;2023-04-25T04:43:37;8.80;;;7.50;;
974;SDS011;6115;49.296;10.602;2023-04-25T04:48:39;10.37;;;8.40;;
974;SDS011;6115;49.296;10.602;2023-04-25T04:53:40;10.23;;;7.23;;
974;SDS011;6115;49.296;10.602;2023-04-25T04:58:40;9.53;;;8.10;;
974;SDS011;6115;49.296;10.602;2023-04-25T05:03:41;12.17;;;8.00;;
974;SDS011;6115;49.296;10.602;2023-04-25T05:08:41;10.00;;;7.77;;
974;SDS011;6115;49.296;10.602;2023-04-25T05:13:42;9.67;;;8.20;;
974;SDS011;6115;49.296;10.602;2023-04-25T05:18:42;9.87;;;7.70;;
974;SDS011;6115;49.296;10.602;2023-04-25T05:23:43;15.70;;;10.80;;
974;SDS011;6115;49.296;10.602;2023-04-25T05:28:43;18.27;;;11.90;;
974;SDS011;6115;49.296;10.602;2023-04-25T05:33:44;21.57;;;12.87;;
974;SDS011;6115;49.296;10.602;2023-04-25T05:38:45;9.50;;;7.57;;
974;SDS011;6115;49.296;10.602;2023-04-25T05:43:45;9.70;;;7.30;;
974;SDS011;6115;49.296;10.602;2023-04-25T05:48:48;9.30;;;7.23;;
974;SDS011;6115;49.296;10.602;2023-04-25T05:53:49;10.13;;;7.83;;
974;SDS011;6115;49.296;10.602;2023-04-25T05:58:49;8.60;;;5.80;;
974;SDS011;6115;49.296;10.602;2023-04-25T06:03:50;14.80;;;8.27;;
974;SDS011;6115;49.296;10.602;2023-04-25T06:08:52;7.70;;;6.03;;
974;SDS011;6115;49.296;10.602;2023-04-25T06:13:53;7.70;;;6.67;;
974;SDS011;6115;49.296;10.602;2023-04-25T06:18:54;8.93;;;6.80;;
974;SDS011;6115;49.296;10.602;2023-04-25T06:23:54;10.00;;;7.20;;
974;SDS011;6115;49.296;10.602;2023-04-25T06:28:55;8.97;;;6.93;;
974;SDS011;6115;49.296;10.602;2023-04-25T06:33:55;9.70;;;6.63;;
974;SDS011;6115;49.296;10.602;2023-04-25T06:38:56;10.13;;;7.53;;
974;SDS011;6115;49.296;10.602;2023-04-25T06:43:57;8.23;;;6.37;;
974;SDS011;6115;49.296;10.602;2023-04-25T06:48:57;11.00;;;7.57;;
974;SDS011;6115;49.296;10.602;2023-04-25T06:53:58;11.23;;;7.90;;
974;SDS011;6115;49.296;10.602;2023-04-25T06:58:59;11.07;;;7.60;;
974;SDS011;6115;49.296;10.602;2023-04-25T07:04:00;9.80;;;7.47;;
974;SDS011;6115;49.296;10.602;2023-04-25T07:09:01;7.40;;;5.40;;
974;SDS011;6115;49.296;10.602;2023-04-25T07:14:02;7.67;;;6.30;;
974;SDS011;6115;49.296;10.602;2023-04-25T07:19:03;9.23;;;6.07;;
974;SDS011;6115;49.296;10.602;2023-04-25T07:24:05;7.60;;;6.17;;
974;SDS011;6115;49.296;10.602;2023-04-25T07:29:06;9.43;;;6.23;;
974;SDS011;6115;49.296;10.602;2023-04-25T07:34:06;10.00;;;7.80;;
974;SDS011;6115;49.296;10.602;2023-04-25T07:39:07;8.07;;;6.23;;
974;SDS011;6115;49.296;10.602;2023-04-25T07:44:09;7.50;;;6.30;;
974;SDS011;6115;49.296;10.602;2023-04-25T07:49:09;11.60;;;6.80;;
974;SDS011;6115;49.296;10.602;2023-04-25T07:54:12;8.50;;;6.97;;
974;SDS011;6115;49.296;10.602;2023-04-25T07:59:13;7.80;;;6.03;;
974;SDS011;6115;49.296;10.602;2023-04-25T08:04:14;7.93;;;6.33;;
974;SDS011;6115;49.296;10.602;2023-04-25T08:09:14;7.77;;;6.83;;
974;SDS011;6115;49.296;10.602;2023-04-25T08:14:15;7.33;;;6.63;;
974;SDS011;6115;49.296;10.602;2023-04-25T08:19:16;8.97;;;7.00;;
974;SDS011;6115;49.296;10.602;2023-04-25T08:24:16;8.27;;;6.60;;
974;SDS011;6115;49.296;10.602;2023-04-25T08:29:17;9.60;;;6.43;;
974;SDS011;6115;49.296;10.602;2023-04-25T08:34:18;9.83;;;6.07;;
974;SDS011;6115;49.296;10.602;2023-04-25T08:39:20;8.10;;;6.10;;
974;SDS011;6115;49.296;10.602;2023-04-25T08:44:20;8.70;;;6.90;;
974;SDS011;6115;49.296;10.602;2023-04-25T08:49:23;8.77;;;6.80;;
974;SDS011;6115;49.296;10.602;2023-04-25T08:54:25;8.90;;;7.13;;
974;SDS011;6115;49.296;10.602;2023-04-25T08:59:28;7.50;;;5.60;;
974;SDS011;6115;49.296;10.602;2023-04-25T09:04:32;6.33;;;5.40;;
974;SDS011;6115;49.296;10.602;2023-04-25T09:09:32;5.73;;;5.00;;
974;SDS011;6115;49.296;10.602;2023-04-25T09:14:33;8.13;;;5.37;;
974;SDS011;6115;49.296;10.602;2023-04-25T09:19:36;11.13;;;6.80;;
974;SDS011;6115;49.296;10.602;2023-04-25T09:24:43;7.53;;;5.47;;
974;SDS011;6115;49.296;10.602;2023-04-25T09:29:45;7.17;;;5.30;;
974;SDS011;6115;49.296;10.602;2023-04-25T09:34:47;7.27;;;5.47;;
974;SDS011;6115;49.296;10.602;2023-04-25T09:39:50;4.87;;;4.37;;
974;SDS011;6115;49.296;10.602;2023-04-25T09:44:55;8.07;;;5.10;;
974;SDS011;6115;49.296;10.602;2023-04-25T09:49:56;6.40;;;4.87;;
974;SDS011;6115;49.296;10.602;2023-04-25T09:54:57;7.00;;;5.33;;
974;SDS011;6115;49.296;10.602;2023-04-25T09:59:57;6.13;;;5.03;;
974;SDS011;6115;49.296;10.602;2023-04-25T10:05:00;5.53;;;4.50;;
974;SDS011;6115;49.296;10.602;2023-04-25T10:10:05;5.37;;;4.47;;
974;SDS011;6115;49.296;10.602;2023-04-25T10:15:07;6.77;;;4.70;;
974;SDS011;6115;49.296;10.602;2023-04-25T10:20:09;8.47;;;4.30;;
974;SDS011;6115;49.296;10.602;2023-04-25T10:25:11;5.03;;;3.47;;
974;SDS011;6115;49.296;10.602;2023-04-25T10:30:15;4.80;;;4.00;;
974;SDS011;6115;49.296;10.602;2023-04-25T10:35:17;3.57;;;2.93;;
974;SDS011;6115;49.296;10.602;2023-04-25T10:40:21;7.83;;;3.10;;
974;SDS011;6115;49.296;10.602;2023-04-25T10:45:22;3.97;;;3.20;;
974;SDS011;6115;49.296;10.602;2023-04-25T10:50:23;4.67;;;3.20;;
974;SDS011;6115;49.296;10.602;2023-04-25T10:55:50;5.43;;;3.10;;
974;SDS011;6115;49.296;10.602;2023-04-25T11:00:51;4.17;;;3.00;;
974;SDS011;6115;49.296;10.602;2023-04-25T11:05:52;3.00;;;2.70;;
974;SDS011;6115;49.296;10.602;2023-04-25T11:10:53;4.13;;;2.77;;
974;SDS011;6115;49.296;10.602;2023-04-25T11:15:54;5.83;;;3.30;;
974;SDS011;6115;49.296;10.602;2023-04-25T11:20:55;3.67;;;2.87;;
974;SDS011;6115;49.296;10.602;2023-04-25T11:25:55;3.60;;;3.10;;
974;SDS011;6115;49.296;10.602;2023-04-25T11:30:56;6.10;;;4.07;;
974;SDS011;6115;49.296;10.602;2023-04-25T11:35:57;4.43;;;2.90;;
974;SDS011;6115;49.296;10.602;2023-04-25T11:40:58;5.43;;;2.87;;
974;SDS011;6115;49.296;10.602;2023-04-25T11:45:58;4.63;;;2.93;;
974;SDS011;6115;49.296;10.602;2023-04-25T11:51:00;2.77;;;2.50;;
974;SDS011;6115;49.296;10.602;2023-04-25T11:56:01;4.13;;;2.40;;
974;SDS011;6115;49.296;10.602;2023-04-25T12:01:02;4.00;;;2.27;;
974;SDS011;6115;49.296;10.602;2023-04-25T12:06:03;4.23;;;2.87;;
974;SDS011;6115;49.296;10.602;2023-04-25T12:11:04;5.13;;;3.07;;
974;SDS011;6115;49.296;10.602;2023-04-25T12:16:19;2.80;;;2.50;;
974;SDS011;6115;49.296;10.602;2023-04-25T12:21:20;3.13;;;2.83;;
974;SDS011;6115;49.296;10.602;2023-04-25T12:26:22;4.80;;;3.10;;
974;SDS011;6115;49.296;10.602;2023-04-25T12:31:22;5.43;;;2.93;;
974;SDS011;6115;49.296;10.602;2023-04-25T12:36:25;4.27;;;3.20;;
974;SDS011;6115;49.296;10.602;2023-04-25T12:41:25;3.07;;;2.20;;
974;SDS011;6115;49.296;10.602;2023-04-25T12:46:26;4.33;;;2.60;;
974;SDS011;6115;49.296;10.602;2023-04-25T12:51:27;6.77;;;3.20;;
974;SDS011;6115;49.296;10.602;2023-04-25T12:56:28;3.87;;;2.80;;
974;SDS011;6115;49.296;10.602;2023-04-25T13:01:29;4.90;;;2.80;;
974;SDS011;6115;49.296;10.602;2023-04-25T13:06:30;5.43;;;3.23;;
974;SDS011;6115;49.296;10.602;2023-04-25T13:11:30;3.03;;;2.43;;
974;SDS011;6115;49.296;10.602;2023-04-25T13:16:31;4.80;;;3.33;;
974;SDS011;6115;49.296;10.602;2023-04-25T13:21:32;3.93;;;2.87;;
974;SDS011;6115;49.296;10.602;2023-04-25T13:26:32;5.70;;;3.13;;
974;SDS011;6115;49.296;10.602;2023-04-25T13:31:33;4.77;;;2.53;;
974;SDS011;6115;49.296;10.602;2023-04-25T13:36:33;8.10;;;2.70;;
974;SDS011;6115;49.296;10.602;2023-04-25T13:41:34;4.50;;;3.23;;
974;SDS011;6115;49.296;10.602;2023-04-25T13:46:35;3.20;;;2.80;;
974;SDS011;6115;49.296;10.602;2023-04-25T13:51:37;3.60;;;2.63;;
974;SDS011;6115;49.296;10.602;2023-04-25T13:56:37;3.70;;;2.63;;
974;SDS011;6115;49.296;10.602;2023-04-25T14:01:38;2.80;;;2.50;;
974;SDS011;6115;49.296;10.602;2023-04-25T14:06:39;2.90;;;2.37;;
974;SDS011;6115;49.296;10.602;2023-04-25T14:11:39;5.03;;;3.00;;
974;SDS011;6115;49.296;10.602;2023-04-25T14:16:40;4.17;;;3.17;;
974;SDS011;6115;49.296;10.602;2023-04-25T14:21:41;3.60;;;3.30;;
974;SDS011;6115;49.296;10.602;2023-04-25T14:26:41;4.50;;;3.27;;
974;SDS011;6115;49.296;10.602;2023-04-25T14:31:42;3.67;;;3.13;;
974;SDS011;6115;49.296;10.602;2023-04-25T14:36:43;7.30;;;4.07;;
974;SDS011;6115;49.296;10.602;2023-04-25T14:41:44;3.63;;;3.30;;
974;SDS011;6115;49.296;10.602;2023-04-25T14:46:45;4.43;;;3.20;;
974;SDS011;6115;49.296;10.602;2023-04-25T14:51:45;6.93;;;3.30;;
974;SDS011;6115;49.296;10.602;2023-04-25T14:56:46;5.13;;;4.00;;
974;SDS011;6115;49.296;10.602;2023-04-25T15:01:46;7.00;;;3.53;;
974;SDS011;6115;49.296;10.602;2023-04-25T15:06:47;7.03;;;3.57;;
974;SDS011;6115;49.296;10.602;2023-04-25T15:11:47;5.23;;;3.73;;
974;SDS011;6115;49.296;10.602;2023-04-25T15:16:48;4.90;;;3.30;;
974;SDS011;6115;49.296;10.602;2023-04-25T15:21:49;4.10;;;3.20;;
974;SDS011;6115;49.296;10.602;2023-04-25T15:26:49;5.30;;;3.40;;
974;SDS011;6115;49.296;10.602;2023-04-25T15:31:50;7.33;;;4.10;;
974;SDS011;6115;49.296;10.602;2023-04-25T15:36:51;6.50;;;3.93;;
974;SDS011;6115;49.296;10.602;2023-04-25T15:41:51;6.30;;;4.10;;
974;SDS011;6115;49.296;10.602;2023-04-25T15:46:52;5.93;;;3.80;;
974;SDS011;6115;49.296;10.602;2023-04-25T15:51:52;5.67;;;3.30;;
974;SDS011;6115;49.296;10.602;2023-04-25T15:56:53;6.93;;;4.30;;
974;SDS011;6115;49.296;10.602;2023-04-25T16:01:54;5.80;;;4.63;;
974;SDS011;6115;49.296;10.602;2023-04-25T16:06:56;5.70;;;4.57;;
974;SDS011;6115;49.296;10.602;2023-04-25T16:11:56;6.30;;;4.73;;
974;SDS011;6115;49.296;10.602;2023-04-25T16:16:57;12.70;;;7.20;;
974;SDS011;6115;49.296;10.602;2023-04-25T16:21:59;13.87;;;4.70;;
974;SDS011;6115;49.296;10.602;2023-04-25T16:27:01;9.30;;;6.17;;
974;SDS011;6115;49.296;10.602;2023-04-25T16:32:02;10.97;;;6.87;;
974;SDS011;6115;49.296;10.602;2023-04-25T16:37:03;7.50;;;5.50;;
974;SDS011;6115;49.296;10.602;2023-04-25T16:42:04;10.17;;;6.60;;
974;SDS011;6115;49.296;10.602;2023-04-25T16:47:05;10.23;;;5.10;;
974;SDS011;6115;49.296;10.602;2023-04-25T16:52:05;7.73;;;5.00;;
974;SDS011;6115;49.296;10.602;2023-04-25T16:57:06;7.67;;;5.00;;
974;SDS011;6115;49.296;10.602;2023-04-25T17:02:11;6.50;;;4.27;;
974;SDS011;6115;49.296;10.602;2023-04-25T17:07:12;6.63;;;4.90;;
974;SDS011;6115;49.296;10.602;2023-04-25T17:12:12;7.97;;;4.90;;
974;SDS011;6115;49.296;10.602;2023-04-25T17:17:13;6.70;;;4.90;;
974;SDS011;6115;49.296;10.602;2023-04-25T17:22:14;5.47;;;3.73;;
974;SDS011;6115;49.296;10.602;2023-04-25T17:27:14;7.20;;;4.00;;
974;SDS011;6115;49.296;10.602;2023-04-25T17:32:16;7.60;;;4.33;;
974;SDS011;6115;49.296;10.602;2023-04-25T17:37:16;6.13;;;4.10;;
974;SDS011;6115;49.296;10.602;2023-04-25T17:42:17;6.70;;;4.10;;
974;SDS011;6115;49.296;10.602;2023-04-25T17:47:18;8.53;;;4.07;;
974;SDS011;6115;49.296;10.602;2023-04-25T17:52:18;7.07;;;4.40;;
974;SDS011;6115;49.296;10.602;2023-04-25T17:57:19;6.67;;;4.17;;
974;SDS011;6115;49.296;10.602;2023-04-25T18:02:24;4.63;;;3.70;;
974;SDS011;6115;49.296;10.602;2023-04-25T18:07:25;6.97;;;4.70;;
974;SDS011;6115;49.296;10.602;2023-04-25T18:12:26;6.40;;;3.73;;
974;SDS011;6115;49.296;10.602;2023-04-25T18:17:26;9.40;;;4.80;;
974;SDS011;6115;49.296;10.602;2023-04-25T18:22:27;6.23;;;4.37;;
974;SDS011;6115;49.296;10.602;2023-04-25T18:27:27;9.50;;;4.73;;
974;SDS011;6115;49.296;10.602;2023-04-25T18:32:28;8.30;;;5.23;;
974;SDS011;6115;49.296;10.602;2023-04-25T18:37:29;7.23;;;4.77;;
974;SDS011;6115;49.296;10.602;2023-04-25T18:42:29;5.50;;;3.47;;
974;SDS011;6115;49.296;10.602;2023-04-25T18:47:30;8.30;;;4.80;;
974;SDS011;6115;49.296;10.602;2023-04-25T18:52:30;8.13;;;4.10;;
974;SDS011;6115;49.296;10.602;2023-04-25T18:57:33;9.60;;;4.10;;
974;SDS011;6115;49.296;10.602;2023-04-25T19:02:33;6.10;;;4.53;;
974;SDS011;6115;49.296;10.602;2023-04-25T19:07:36;6.20;;;4.60;;
974;SDS011;6115;49.296;10.602;2023-04-25T19:12:38;9.20;;;4.70;;
974;SDS011;6115;49.296;10.602;2023-04-25T19:17:38;8.20;;;4.60;;
974;SDS011;6115;49.296;10.602;2023-04-25T19:22:41;9.70;;;4.50;;
974;SDS011;6115;49.296;10.602;2023-04-25T19:27:41;9.40;;;5.07;;
974;SDS011;6115;49.296;10.602;2023-04-25T19:32:42;6.50;;;3.77;;
974;SDS011;6115;49.296;10.602;2023-04-25T19:37:44;9.43;;;4.67;;
974;SDS011;6115;49.296;10.602;2023-04-25T19:42:45;5.73;;;4.30;;
974;SDS011;6115;49.296;10.602;2023-04-25T19:47:46;6.63;;;4.63;;
974;SDS011;6115;49.296;10.602;2023-04-25T19:52:47;9.57;;;5.00;;
974;SDS011;6115;49.296;10.602;2023-04-25T19:57:48;6.03;;;4.50;;
974;SDS011;6115;49.296;10.602;2023-04-25T20:02:50;9.27;;;5.40;;
974;SDS011;6115;49.296;10.602;2023-04-25T20:07:51;9.33;;;5.40;;
974;SDS011;6115;49.296;10.602;2023-04-25T20:12:54;10.17;;;5.27;;
974;SDS011;6115;49.296;10.602;2023-04-25T20:17:54;10.47;;;6.13;;
974;SDS011;6115;49.296;10.602;2023-04-25T20:22:55;18.97;;;10.20;;
974;SDS011;6115;49.296;10.602;2023-04-25T20:27:55;13.60;;;8.27;;
974;SDS011;6115;49.296;10.602;2023-04-25T20:32:56;17.13;;;9.70;;
974;SDS011;6115;49.296;10.602;2023-04-25T20:37:57;16.10;;;9.43;;
974;SDS011;6115;49.296;10.602;2023-04-25T20:42:57;16.73;;;9.00;;
974;SDS011;6115;49.296;10.602;2023-04-25T20:47:58;28.00;;;15.00;;
974;SDS011;6115;49.296;10.602;2023-04-25T20:52:59;14.40;;;9.50;;
974;SDS011;6115;49.296;10.602;2023-04-25T20:57:59;10.63;;;7.60;;
974;SDS011;6115;49.296;10.602;2023-04-25T21:03:00;10.20;;;7.13;;
974;SDS011;6115;49.296;10.602;2023-04-25T21:08:04;9.77;;;7.10;;
974;SDS011;6115;49.296;10.602;2023-04-25T21:13:04;11.33;;;7.10;;
974;SDS011;6115;49.296;10.602;2023-04-25T21:18:05;9.63;;;6.47;;
974;SDS011;6115;49.296;10.602;2023-04-25T21:23:06;7.60;;;6.30;;
974;SDS011;6115;49.296;10.602;2023-04-25T21:28:07;17.60;;;7.10;;
974;SDS011;6115;49.296;10.602;2023-04-25T21:33:08;11.43;;;6.30;;
974;SDS011;6115;49.296;10.602;2023-04-25T21:38:12;12.43;;;6.03;;
974;SDS011;6115;49.296;10.602;2023-04-25T21:43:13;9.07;;;6.37;;
974;SDS011;6115;49.296;10.602;2023-04-25T21:48:14;8.13;;;5.57;;
974;SDS011;6115;49.296;10.602;2023-04-25T21:53:14;7.27;;;5.67;;
974;SDS011;6115;49.296;10.602;2023-04-25T21:58:15;12.77;;;5.20;;
974;SDS011;6115;49.296;10.602;2023-04-25T22:03:15;9.23;;;5.87;;
974;SDS011;6115;49.296;10.602;2023-04-25T22:08:18;13.97;;;6.37;;
974;SDS011;6115;49.296;10.602;2023-04-25T22:13:19;8.23;;;5.10;;
974;SDS011;6115;49.296;10.602;2023-04-25T22:18:20;10.97;;;4.90;;
974;SDS011;6115;49.296;10.602;2023-04-25T22:23:21;5.97;;;4.60;;
974;SDS011;6115;49.296;10.602;2023-04-25T22:28:21;8.93;;;4.47;;
974;SDS011;6115;49.296;10.602;2023-04-25T22:33:22;7.03;;;4.53;;
974;SDS011;6115;49.296;10.602;2023-04-25T22:38:22;8.03;;;5.17;;
974;SDS011;6115;49.296;10.602;2023-04-25T22:43:23;10.30;;;5.80;;
974;SDS011;6115;49.296;10.602;2023-04-25T22:48:23;9.43;;;6.20;;
974;SDS011;6115;49.296;10.602;2023-04-25T22:53:24;9.50;;;6.87;;
974;SDS011;6115;49.296;10.602;2023-04-25T22:58:25;12.67;;;7.30;;
974;SDS011;6115;49.296;10.602;2023-04-25T23:03:25;9.63;;;7.03;;
974;SDS011;6115;49.296;10.602;2023-04-25T23:08:26;12.27;;;6.80;;
974;SDS011;6115;49.296;10.602;2023-04-25T23:13:26;10.10;;;6.70;;
974;SDS011;6115;49.296;10.602;2023-04-25T23:18:27;10.40;;;6.90;;
974;SDS011;6115;49.296;10.602;2023-04-25T23:23:28;12.20;;;6.20;;
974;SDS011;6115;49.296;10.602;2023-04-25T23:28:28;12.60;;;6.17;;
974;SDS011;6115;49.296;10.602;2023-04-25T23:33:29;12.67;;;5.90;;
974;SDS011;6115;49.296;10.602;2023-04-25T23:38:30;8.60;;;5.57;;
974;SDS011;6115;49.296;10.602;2023-04-25T23:43:31;14.93;;;7.03;;
974;SDS011;6115;49.296;10.602;2023-04-25T23:48:32;11.10;;;6.00;;
974;SDS011;6115;49.296;10.602;2023-04-25T23:53:32;14.30;;;5.67;;
974;SDS011;6115;49.296;10.602;2023-04-25T23:58:33;15.47;;;5.67;;
